Airfield :
LOGIN :

Register | Disclaimer

   EN    FR    IT 

 










Legend :    VFR   Marginal VFR   IFR   Intensive IFR   Very Intensive IFR
Visi :
Ceiling :
>= 8 km
>= 3000ft
5 to 8 km
1000 to 3000 ft
1500m to 5 km
500 to 1000 ft
800 to 1500m
200 to 500 ft
< 800m
< 200 ft
Symbols :   Thunderstorms  Fog  Heavy snow  Heavy precipitations  Wind > 20 kt
SIGMETs :     Misc.  Thunderstorms  Icing  Turbulence  Mountain Waves  Volcanic Ashes






- Airport Elevation : 75 ft
- IATA code : YEO


EGDY - RNAS Yeovilton

CURRENT METAR :
  • 261450Z AUTO 20017KT 5000 RADZ SCT010/// SCT015/// BKN040/// 10/09 Q1005

EXPIRED METARs :
  • 261350Z 20018KT 3000 RA FEW006 SCT010 OVC020 10/09 Q1006 TEMPO 4000 RA SCT010 RMK YLO1 TEMPO GRN
  • 261250Z AUTO 20019KT 9999 FEW012/// BKN050/// 10/09 Q1006 RERA

Expired Forecast.



MET'MAP, your aeronautical weather chart ! - Copyright ORBIFLY December 2007 - Disclaimer

ORBIFLY MET'MAP TEAM :

Programming & Development : Alexandra Zaïnal
Concept & original design : Baudouin d'Aumeries
Assistance for programming : Marc-Olivier Méhu
Technical & hardware support : Manuel Goepfert

Contact : metmap@orbifly.com




SOURCES & CREDITS :

   NOAA